Hauptseite
METAR-TAF:

METAR-TAF

Flughäfen :

Lahr, Deutschland

Flughafen Lahr

Breite: 48-22-09N, Länge: 007-49-40E, Höhe: 156 m

Beobachtung

Neuester Wetterbericht von vor 8 Stunden und 35 Minuten, um 17:20 UTC
Wind 2 kt aus Ost
Temperatur 18°C
Luftfeuchtigkeit 73%
Luftdruck 1024 hPa
Sichtweite 10 km oder mehr
keine Wolken unter 1500 m und keine Kumulonimbus oder Gewitterwolken

METAR: EDTL 161720Z 08002KT CAVOK 18/13 Q1024

Zeit: 03:55 (01:55 UTC)

Prognose

Neuester Wetterbericht von vor 8 Stunden und 55 Minuten, um 17:00 UTC
Gültige Prognose vom 16 um 18 UTC bis 16 um 24 UTC
Wind 3 kt aus unterschiedlichen Richtungen
Sichtweite 10 km oder mehr
keine Wolken unter 1500 m und keine Kumulonimbus oder Gewitterwolken
Übergehend zu
vom 16 um 22 UTC bis 16 um 24 UTC
Sichtweite: 4500 m
Nebelschwaden

TAF: EDTL 161700Z 1618/1624 VRB03KT CAVOK BECMG 1622/1624 4500 BCFG

Wetterbeobachtungen und Prognosen von mehr als 4000 Flughäfen (METAR und TAF Bericht).

Die verfügbaren Stationen werden durch gelbe und rote Markierungen auf der Karte dargestellt.

Führen Sie die Maus auf sie, um den Namen der Station zu sehen.

Darauf klicken, um die Beobachtung von Wetterbeobachtungen und Prognosen zu sehen.

Um die Karte zu ändern : klicken Sie auf den grünen Tasten mit einem schwarzen Kreuz Zum Vergrößern, auf den grünen Button mit einem Gedankenstrich zu verkleinern, oder auf die grünen Pfeile für benachbarte Karten.


METAR-TAF: